sensor_id;sensor_type;location;lat;lon;timestamp;pressure;altitude;pressure_sealevel;temperature;humidity
71791;BME280;59638;52.126;5.434;2023-09-30T00:01:28;102566.13;;;10.14;100.00
71791;BME280;59638;52.126;5.434;2023-09-30T00:03:54;102578.56;;;10.12;100.00
71791;BME280;59638;52.126;5.434;2023-09-30T00:06:21;102584.03;;;10.08;100.00
71791;BME280;59638;52.126;5.434;2023-09-30T00:08:48;102579.06;;;10.18;100.00
71791;BME280;59638;52.126;5.434;2023-09-30T00:11:15;102588.56;;;10.21;100.00
71791;BME280;59638;52.126;5.434;2023-09-30T00:13:43;102588.94;;;10.15;100.00
71791;BME280;59638;52.126;5.434;2023-09-30T00:16:10;102585.91;;;10.06;100.00
71791;BME280;59638;52.126;5.434;2023-09-30T00:18:36;102578.25;;;10.02;100.00
71791;BME280;59638;52.126;5.434;2023-09-30T00:21:03;102582.69;;;10.01;100.00
71791;BME280;59638;52.126;5.434;2023-09-30T00:23:29;102574.31;;;10.09;100.00
71791;BME280;59638;52.126;5.434;2023-09-30T00:25:56;102576.50;;;10.17;100.00
71791;BME280;59638;52.126;5.434;2023-09-30T00:28:22;102575.56;;;10.18;100.00
71791;BME280;59638;52.126;5.434;2023-09-30T00:30:49;102573.47;;;10.08;100.00
71791;BME280;59638;52.126;5.434;2023-09-30T00:33:17;102581.94;;;9.99;100.00
71791;BME280;59638;52.126;5.434;2023-09-30T00:35:43;102583.25;;;9.92;100.00
71791;BME280;59638;52.126;5.434;2023-09-30T00:38:10;102582.66;;;9.87;100.00
71791;BME280;59638;52.126;5.434;2023-09-30T00:40:36;102594.81;;;9.90;100.00
71791;BME280;59638;52.126;5.434;2023-09-30T00:43:03;102600.94;;;9.90;100.00
71791;BME280;59638;52.126;5.434;2023-09-30T00:45:30;102602.81;;;9.88;100.00
71791;BME280;59638;52.126;5.434;2023-09-30T00:47:56;102599.44;;;9.86;100.00
71791;BME280;59638;52.126;5.434;2023-09-30T00:50:23;102605.47;;;9.88;100.00
71791;BME280;59638;52.126;5.434;2023-09-30T00:52:50;102613.97;;;9.93;100.00
71791;BME280;59638;52.126;5.434;2023-09-30T00:55:17;102618.88;;;9.99;100.00
71791;BME280;59638;52.126;5.434;2023-09-30T00:57:44;102619.94;;;10.11;100.00
71791;BME280;59638;52.126;5.434;2023-09-30T01:00:11;102623.81;;;10.20;100.00
71791;BME280;59638;52.126;5.434;2023-09-30T01:02:39;102617.47;;;10.24;100.00
71791;BME280;59638;52.126;5.434;2023-09-30T01:05:08;102616.59;;;10.23;100.00
71791;BME280;59638;52.126;5.434;2023-09-30T01:07:35;102616.53;;;10.25;100.00
71791;BME280;59638;52.126;5.434;2023-09-30T01:10:02;102621.59;;;10.28;100.00
71791;BME280;59638;52.126;5.434;2023-09-30T01:12:29;102621.59;;;10.28;100.00
71791;BME280;59638;52.126;5.434;2023-09-30T01:14:58;102616.66;;;10.22;100.00
71791;BME280;59638;52.126;5.434;2023-09-30T01:17:26;102615.03;;;10.05;100.00
71791;BME280;59638;52.126;5.434;2023-09-30T01:19:57;102621.03;;;9.93;100.00
71791;BME280;59638;52.126;5.434;2023-09-30T01:22:25;102616.97;;;9.87;100.00
71791;BME280;59638;52.126;5.434;2023-09-30T01:24:51;102626.16;;;9.80;100.00
71791;BME280;59638;52.126;5.434;2023-09-30T01:27:18;102636.72;;;9.80;100.00
71791;BME280;59638;52.126;5.434;2023-09-30T01:29:45;102642.09;;;9.78;100.00
71791;BME280;59638;52.126;5.434;2023-09-30T01:32:11;102650.16;;;9.75;100.00
71791;BME280;59638;52.126;5.434;2023-09-30T01:34:41;102644.53;;;9.81;100.00
71791;BME280;59638;52.126;5.434;2023-09-30T01:37:07;102639.94;;;9.85;100.00
71791;BME280;59638;52.126;5.434;2023-09-30T01:39:34;102645.78;;;9.90;100.00
71791;BME280;59638;52.126;5.434;2023-09-30T01:42:00;102630.72;;;9.92;100.00
71791;BME280;59638;52.126;5.434;2023-09-30T01:44:27;102637.16;;;10.02;100.00
71791;BME280;59638;52.126;5.434;2023-09-30T01:46:53;102634.34;;;10.05;100.00
71791;BME280;59638;52.126;5.434;2023-09-30T01:49:20;102629.47;;;10.14;100.00
71791;BME280;59638;52.126;5.434;2023-09-30T01:51:50;102632.50;;;10.22;100.00
71791;BME280;59638;52.126;5.434;2023-09-30T01:54:16;102636.63;;;10.12;100.00
71791;BME280;59638;52.126;5.434;2023-09-30T01:56:43;102632.72;;;10.03;100.00
71791;BME280;59638;52.126;5.434;2023-09-30T01:59:09;102631.22;;;9.99;100.00
71791;BME280;59638;52.126;5.434;2023-09-30T02:01:36;102618.91;;;10.14;100.00
71791;BME280;59638;52.126;5.434;2023-09-30T02:04:02;102614.81;;;10.24;100.00
71791;BME280;59638;52.126;5.434;2023-09-30T02:06:29;102613.09;;;10.23;100.00
71791;BME280;59638;52.126;5.434;2023-09-30T02:08:56;102606.47;;;10.16;100.00
71791;BME280;59638;52.126;5.434;2023-09-30T02:11:22;102617.94;;;10.00;100.00
71791;BME280;59638;52.126;5.434;2023-09-30T02:13:49;102623.94;;;9.88;100.00
71791;BME280;59638;52.126;5.434;2023-09-30T02:16:15;102629.56;;;9.82;100.00
71791;BME280;59638;52.126;5.434;2023-09-30T02:18:43;102634.81;;;9.82;100.00
71791;BME280;59638;52.126;5.434;2023-09-30T02:21:13;102633.13;;;9.81;100.00
71791;BME280;59638;52.126;5.434;2023-09-30T02:23:40;102632.38;;;9.79;100.00
71791;BME280;59638;52.126;5.434;2023-09-30T02:26:06;102623.63;;;9.78;100.00
71791;BME280;59638;52.126;5.434;2023-09-30T02:28:33;102627.22;;;9.77;100.00
71791;BME280;59638;52.126;5.434;2023-09-30T02:31:00;102631.59;;;9.77;100.00
71791;BME280;59638;52.126;5.434;2023-09-30T02:33:27;102628.91;;;9.78;100.00
71791;BME280;59638;52.126;5.434;2023-09-30T02:35:53;102627.50;;;9.87;100.00
71791;BME280;59638;52.126;5.434;2023-09-30T02:38:20;102621.69;;;9.96;100.00
71791;BME280;59638;52.126;5.434;2023-09-30T02:40:47;102617.56;;;10.06;100.00
71791;BME280;59638;52.126;5.434;2023-09-30T02:43:14;102618.53;;;10.20;100.00
71791;BME280;59638;52.126;5.434;2023-09-30T02:45:41;102610.88;;;10.31;100.00
71791;BME280;59638;52.126;5.434;2023-09-30T02:48:07;102613.16;;;10.51;100.00
71791;BME280;59638;52.126;5.434;2023-09-30T02:50:35;102614.63;;;10.55;100.00
71791;BME280;59638;52.126;5.434;2023-09-30T02:53:01;102608.50;;;10.55;100.00
71791;BME280;59638;52.126;5.434;2023-09-30T02:55:28;102615.41;;;10.43;100.00
71791;BME280;59638;52.126;5.434;2023-09-30T02:57:54;102606.72;;;10.41;100.00
71791;BME280;59638;52.126;5.434;2023-09-30T03:00:21;102612.00;;;10.41;100.00
71791;BME280;59638;52.126;5.434;2023-09-30T03:02:53;102616.63;;;10.38;100.00
71791;BME280;59638;52.126;5.434;2023-09-30T03:05:20;102607.75;;;10.39;100.00
71791;BME280;59638;52.126;5.434;2023-09-30T03:07:47;102604.06;;;10.41;100.00
71791;BME280;59638;52.126;5.434;2023-09-30T03:10:14;102610.69;;;10.48;100.00
71791;BME280;59638;52.126;5.434;2023-09-30T03:12:47;102606.44;;;10.60;100.00
71791;BME280;59638;52.126;5.434;2023-09-30T03:15:14;102614.66;;;10.70;100.00
71791;BME280;59638;52.126;5.434;2023-09-30T03:17:41;102618.78;;;10.74;100.00
71791;BME280;59638;52.126;5.434;2023-09-30T03:20:08;102609.91;;;10.75;100.00
71791;BME280;59638;52.126;5.434;2023-09-30T03:22:39;102614.25;;;10.76;100.00
71791;BME280;59638;52.126;5.434;2023-09-30T03:25:07;102608.06;;;10.77;100.00
71791;BME280;59638;52.126;5.434;2023-09-30T03:27:35;102602.84;;;10.75;100.00
71791;BME280;59638;52.126;5.434;2023-09-30T03:30:04;102604.84;;;10.72;100.00
71791;BME280;59638;52.126;5.434;2023-09-30T03:32:32;102605.59;;;10.74;100.00
71791;BME280;59638;52.126;5.434;2023-09-30T03:35:00;102604.84;;;10.72;100.00
71791;BME280;59638;52.126;5.434;2023-09-30T03:37:27;102600.41;;;10.72;100.00
71791;BME280;59638;52.126;5.434;2023-09-30T03:39:54;102602.19;;;10.72;100.00
71791;BME280;59638;52.126;5.434;2023-09-30T03:42:21;102611.06;;;10.71;100.00
71791;BME280;59638;52.126;5.434;2023-09-30T03:44:48;102601.47;;;10.70;100.00
71791;BME280;59638;52.126;5.434;2023-09-30T03:47:18;102603.31;;;10.68;100.00
71791;BME280;59638;52.126;5.434;2023-09-30T03:49:45;102598.41;;;10.61;100.00
71791;BME280;59638;52.126;5.434;2023-09-30T03:52:11;102607.28;;;10.60;100.00
71791;BME280;59638;52.126;5.434;2023-09-30T03:54:41;102610.28;;;10.69;100.00
71791;BME280;59638;52.126;5.434;2023-09-30T03:57:08;102606.63;;;10.71;100.00
71791;BME280;59638;52.126;5.434;2023-09-30T03:59:34;102603.16;;;10.71;100.00
71791;BME280;59638;52.126;5.434;2023-09-30T04:02:01;102606.53;;;10.73;100.00
71791;BME280;59638;52.126;5.434;2023-09-30T04:04:27;102604.75;;;10.73;100.00
71791;BME280;59638;52.126;5.434;2023-09-30T04:06:54;102601.94;;;10.76;100.00
71791;BME280;59638;52.126;5.434;2023-09-30T04:09:21;102605.78;;;10.85;100.00
71791;BME280;59638;52.126;5.434;2023-09-30T04:11:47;102606.88;;;10.95;100.00
71791;BME280;59638;52.126;5.434;2023-09-30T04:14:14;102608.38;;;10.99;100.00
71791;BME280;59638;52.126;5.434;2023-09-30T04:16:43;102610.47;;;10.94;100.00
71791;BME280;59638;52.126;5.434;2023-09-30T04:19:11;102611.69;;;10.88;100.00
71791;BME280;59638;52.126;5.434;2023-09-30T04:21:37;102611.91;;;10.85;100.00
71791;BME280;59638;52.126;5.434;2023-09-30T04:24:05;102617.28;;;10.84;100.00
71791;BME280;59638;52.126;5.434;2023-09-30T04:26:33;102612.00;;;10.84;100.00
71791;BME280;59638;52.126;5.434;2023-09-30T04:28:59;102611.22;;;10.82;100.00
71791;BME280;59638;52.126;5.434;2023-09-30T04:31:28;102612.94;;;10.83;100.00
71791;BME280;59638;52.126;5.434;2023-09-30T04:33:55;102625.97;;;10.86;100.00
71791;BME280;59638;52.126;5.434;2023-09-30T04:36:24;102624.44;;;10.82;100.00
71791;BME280;59638;52.126;5.434;2023-09-30T04:38:51;102627.28;;;10.79;100.00
71791;BME280;59638;52.126;5.434;2023-09-30T04:41:17;102629.94;;;10.79;100.00
71791;BME280;59638;52.126;5.434;2023-09-30T04:43:45;102628.97;;;10.80;100.00
71791;BME280;59638;52.126;5.434;2023-09-30T04:46:13;102638.03;;;10.76;100.00
71791;BME280;59638;52.126;5.434;2023-09-30T04:48:40;102622.75;;;10.67;100.00
71791;BME280;59638;52.126;5.434;2023-09-30T04:51:08;102628.13;;;10.65;100.00
71791;BME280;59638;52.126;5.434;2023-09-30T04:53:35;102625.13;;;10.57;100.00
71791;BME280;59638;52.126;5.434;2023-09-30T04:56:02;102632.56;;;10.50;100.00
71791;BME280;59638;52.126;5.434;2023-09-30T04:58:29;102634.81;;;10.42;100.00
71791;BME280;59638;52.126;5.434;2023-09-30T05:00:56;102636.34;;;10.46;100.00
71791;BME280;59638;52.126;5.434;2023-09-30T05:03:23;102636.91;;;10.51;100.00
71791;BME280;59638;52.126;5.434;2023-09-30T05:05:52;102638.13;;;10.60;100.00
71791;BME280;59638;52.126;5.434;2023-09-30T05:08:20;102645.59;;;10.68;100.00
71791;BME280;59638;52.126;5.434;2023-09-30T05:10:46;102647.66;;;10.62;100.00
71791;BME280;59638;52.126;5.434;2023-09-30T05:13:12;102645.22;;;10.59;100.00
71791;BME280;59638;52.126;5.434;2023-09-30T05:15:39;102650.59;;;10.58;100.00
71791;BME280;59638;52.126;5.434;2023-09-30T05:18:08;102647.00;;;10.59;100.00
71791;BME280;59638;52.126;5.434;2023-09-30T05:20:36;102642.34;;;10.48;100.00
71791;BME280;59638;52.126;5.434;2023-09-30T05:23:04;102640.09;;;10.42;100.00
71791;BME280;59638;52.126;5.434;2023-09-30T05:25:33;102632.38;;;10.39;100.00
71791;BME280;59638;52.126;5.434;2023-09-30T05:27:59;102635.53;;;10.30;100.00
71791;BME280;59638;52.126;5.434;2023-09-30T05:30:26;102644.41;;;10.29;100.00
71791;BME280;59638;52.126;5.434;2023-09-30T05:32:52;102648.75;;;10.30;100.00
71791;BME280;59638;52.126;5.434;2023-09-30T05:35:19;102648.69;;;10.31;100.00
71791;BME280;59638;52.126;5.434;2023-09-30T05:37:48;102648.09;;;10.41;100.00
71791;BME280;59638;52.126;5.434;2023-09-30T05:40:19;102643.31;;;10.47;100.00
71791;BME280;59638;52.126;5.434;2023-09-30T05:42:52;102657.09;;;10.52;100.00
71791;BME280;59638;52.126;5.434;2023-09-30T05:45:20;102661.53;;;10.52;100.00
71791;BME280;59638;52.126;5.434;2023-09-30T05:47:46;102656.41;;;10.49;100.00
71791;BME280;59638;52.126;5.434;2023-09-30T05:50:18;102655.66;;;10.47;100.00
71791;BME280;59638;52.126;5.434;2023-09-30T05:52:54;102641.63;;;10.46;100.00
71791;BME280;59638;52.126;5.434;2023-09-30T05:55:22;102646.91;;;10.46;100.00
71791;BME280;59638;52.126;5.434;2023-09-30T05:57:49;102639.56;;;10.51;100.00
71791;BME280;59638;52.126;5.434;2023-09-30T06:00:16;102648.06;;;10.56;100.00
71791;BME280;59638;52.126;5.434;2023-09-30T06:02:51;102650.50;;;10.59;100.00
71791;BME280;59638;52.126;5.434;2023-09-30T06:05:18;102649.25;;;10.51;100.00
71791;BME280;59638;52.126;5.434;2023-09-30T06:07:46;102649.63;;;10.45;100.00
71791;BME280;59638;52.126;5.434;2023-09-30T06:10:13;102654.72;;;10.48;100.00
71791;BME280;59638;52.126;5.434;2023-09-30T06:12:48;102654.34;;;10.54;100.00
71791;BME280;59638;52.126;5.434;2023-09-30T06:15:15;102663.91;;;10.56;100.00
71791;BME280;59638;52.126;5.434;2023-09-30T06:17:42;102660.94;;;10.61;100.00
71791;BME280;59638;52.126;5.434;2023-09-30T06:20:10;102654.28;;;10.70;100.00
71791;BME280;59638;52.126;5.434;2023-09-30T06:22:43;102643.13;;;10.79;100.00
71791;BME280;59638;52.126;5.434;2023-09-30T06:25:18;102638.50;;;10.82;100.00
71791;BME280;59638;52.126;5.434;2023-09-30T06:27:45;102651.63;;;10.84;100.00
71791;BME280;59638;52.126;5.434;2023-09-30T06:30:13;102652.94;;;10.91;100.00
71791;BME280;59638;52.126;5.434;2023-09-30T06:32:40;102660.28;;;11.00;100.00
71791;BME280;59638;52.126;5.434;2023-09-30T06:35:07;102664.25;;;11.07;100.00
71791;BME280;59638;52.126;5.434;2023-09-30T06:37:37;102665.56;;;11.14;100.00
71791;BME280;59638;52.126;5.434;2023-09-30T06:40:07;102675.75;;;11.21;100.00
71791;BME280;59638;52.126;5.434;2023-09-30T06:42:35;102679.34;;;11.20;100.00
71791;BME280;59638;52.126;5.434;2023-09-30T06:45:02;102681.03;;;11.21;100.00
71791;BME280;59638;52.126;5.434;2023-09-30T06:47:36;102684.22;;;11.26;100.00
71791;BME280;59638;52.126;5.434;2023-09-30T06:50:04;102685.94;;;11.27;100.00
71791;BME280;59638;52.126;5.434;2023-09-30T06:52:34;102692.72;;;11.31;100.00
71791;BME280;59638;52.126;5.434;2023-09-30T06:55:02;102689.38;;;11.41;100.00
71791;BME280;59638;52.126;5.434;2023-09-30T06:57:34;102686.06;;;11.52;100.00
71791;BME280;59638;52.126;5.434;2023-09-30T07:00:05;102697.44;;;11.67;100.00
71791;BME280;59638;52.126;5.434;2023-09-30T07:02:35;102707.16;;;11.81;100.00
71791;BME280;59638;52.126;5.434;2023-09-30T07:05:09;102715.16;;;11.93;100.00
71791;BME280;59638;52.126;5.434;2023-09-30T07:07:36;102716.16;;;12.05;100.00
71791;BME280;59638;52.126;5.434;2023-09-30T07:10:03;102717.25;;;12.15;100.00
71791;BME280;59638;52.126;5.434;2023-09-30T07:12:33;102717.16;;;12.30;100.00
71791;BME280;59638;52.126;5.434;2023-09-30T07:15:03;102724.06;;;12.45;100.00
71791;BME280;59638;52.126;5.434;2023-09-30T07:17:34;102721.31;;;12.59;100.00
71791;BME280;59638;52.126;5.434;2023-09-30T07:20:02;102720.81;;;12.79;100.00
71791;BME280;59638;52.126;5.434;2023-09-30T07:22:29;102727.28;;;13.01;100.00
71791;BME280;59638;52.126;5.434;2023-09-30T07:24:58;102727.69;;;13.20;100.00
71791;BME280;59638;52.126;5.434;2023-09-30T07:27:25;102714.50;;;13.44;100.00
71791;BME280;59638;52.126;5.434;2023-09-30T07:29:54;102724.19;;;13.69;100.00
71791;BME280;59638;52.126;5.434;2023-09-30T07:32:20;102729.13;;;13.98;100.00
71791;BME280;59638;52.126;5.434;2023-09-30T07:34:50;102731.84;;;14.44;100.00
71791;BME280;59638;52.126;5.434;2023-09-30T07:37:17;102737.84;;;14.70;100.00
71791;BME280;59638;52.126;5.434;2023-09-30T07:39:44;102732.44;;;15.05;100.00
71791;BME280;59638;52.126;5.434;2023-09-30T07:42:12;102732.31;;;15.40;100.00
71791;BME280;59638;52.126;5.434;2023-09-30T07:44:38;102737.38;;;15.66;100.00
71791;BME280;59638;52.126;5.434;2023-09-30T07:47:05;102733.66;;;15.89;100.00
71791;BME280;59638;52.126;5.434;2023-09-30T07:49:35;102743.00;;;16.16;100.00
71791;BME280;59638;52.126;5.434;2023-09-30T07:52:02;102745.97;;;16.54;100.00
71791;BME280;59638;52.126;5.434;2023-09-30T07:54:30;102751.81;;;16.90;100.00
71791;BME280;59638;52.126;5.434;2023-09-30T07:56:58;102735.59;;;17.03;100.00
71791;BME280;59638;52.126;5.434;2023-09-30T07:59:26;102745.06;;;17.17;100.00
71791;BME280;59638;52.126;5.434;2023-09-30T08:01:53;102747.72;;;17.17;100.00
71791;BME280;59638;52.126;5.434;2023-09-30T08:04:19;102743.31;;;17.36;100.00
71791;BME280;59638;52.126;5.434;2023-09-30T08:06:46;102749.28;;;17.69;100.00
71791;BME280;59638;52.126;5.434;2023-09-30T08:09:13;102743.44;;;17.85;100.00
71791;BME280;59638;52.126;5.434;2023-09-30T08:11:40;102741.19;;;18.29;100.00
71791;BME280;59638;52.126;5.434;2023-09-30T08:14:06;102723.69;;;18.63;100.00
71791;BME280;59638;52.126;5.434;2023-09-30T08:16:36;102734.97;;;18.57;100.00
71791;BME280;59638;52.126;5.434;2023-09-30T08:19:03;102725.78;;;18.89;100.00
71791;BME280;59638;52.126;5.434;2023-09-30T08:21:30;102728.56;;;18.97;100.00
71791;BME280;59638;52.126;5.434;2023-09-30T08:23:57;102725.31;;;19.58;100.00
71791;BME280;59638;52.126;5.434;2023-09-30T08:26:24;102725.75;;;20.07;99.09
71791;BME280;59638;52.126;5.434;2023-09-30T08:28:51;102715.63;;;20.36;96.53
71791;BME280;59638;52.126;5.434;2023-09-30T08:31:17;102712.59;;;20.83;93.81
71791;BME280;59638;52.126;5.434;2023-09-30T08:33:44;102711.75;;;21.25;92.87
71791;BME280;59638;52.126;5.434;2023-09-30T08:36:12;102721.34;;;21.78;86.77
71791;BME280;59638;52.126;5.434;2023-09-30T08:38:40;102718.19;;;21.32;86.13
71791;BME280;59638;52.126;5.434;2023-09-30T08:41:07;102723.88;;;22.04;83.30
71791;BME280;59638;52.126;5.434;2023-09-30T08:43:38;102735.34;;;23.19;80.59
71791;BME280;59638;52.126;5.434;2023-09-30T08:46:06;102729.47;;;24.00;75.72
71791;BME280;59638;52.126;5.434;2023-09-30T08:48:33;102738.28;;;24.55;71.21
71791;BME280;59638;52.126;5.434;2023-09-30T08:51:01;102742.84;;;24.54;69.93
71791;BME280;59638;52.126;5.434;2023-09-30T08:53:29;102732.03;;;24.54;70.27
71791;BME280;59638;52.126;5.434;2023-09-30T08:55:57;102728.50;;;24.68;71.33
71791;BME280;59638;52.126;5.434;2023-09-30T08:58:28;102732.09;;;25.13;67.95
71791;BME280;59638;52.126;5.434;2023-09-30T09:00:55;102732.31;;;25.33;68.08
71791;BME280;59638;52.126;5.434;2023-09-30T09:03:23;102727.75;;;25.34;65.91
71791;BME280;59638;52.126;5.434;2023-09-30T09:05:54;102734.47;;;25.38;64.82
71791;BME280;59638;52.126;5.434;2023-09-30T09:08:26;102734.38;;;25.67;65.16
71791;BME280;59638;52.126;5.434;2023-09-30T09:11:01;102737.56;;;25.92;64.82
71791;BME280;59638;52.126;5.434;2023-09-30T09:13:54;102744.56;;;26.51;63.07
71791;BME280;59638;52.126;5.434;2023-09-30T09:16:26;102750.47;;;26.61;63.39
71791;BME280;59638;52.126;5.434;2023-09-30T09:18:52;102753.56;;;26.58;60.80
71791;BME280;59638;52.126;5.434;2023-09-30T09:21:21;102748.38;;;26.35;58.88
71791;BME280;59638;52.126;5.434;2023-09-30T09:23:51;102762.91;;;25.85;62.06
71791;BME280;59638;52.126;5.434;2023-09-30T09:26:25;102764.00;;;24.95;65.03
71791;BME280;59638;52.126;5.434;2023-09-30T09:28:59;102771.53;;;24.09;68.17
71791;BME280;59638;52.126;5.434;2023-09-30T09:31:28;102784.84;;;23.10;69.35
71791;BME280;59638;52.126;5.434;2023-09-30T09:33:55;102791.00;;;22.87;72.64
71791;BME280;59638;52.126;5.434;2023-09-30T09:36:41;102780.97;;;25.48;67.68
71791;BME280;59638;52.126;5.434;2023-09-30T09:39:08;102782.72;;;26.56;59.78
71791;BME280;59638;52.126;5.434;2023-09-30T09:41:52;102774.25;;;27.00;60.38
71791;BME280;59638;52.126;5.434;2023-09-30T09:44:21;102783.56;;;27.19;56.27
71791;BME280;59638;52.126;5.434;2023-09-30T09:46:48;102780.91;;;26.98;60.48
71791;BME280;59638;52.126;5.434;2023-09-30T09:49:18;102788.72;;;26.79;56.70
71791;BME280;59638;52.126;5.434;2023-09-30T09:51:46;102780.81;;;24.38;62.89
71791;BME280;59638;52.126;5.434;2023-09-30T09:54:14;102785.84;;;23.56;65.90
71791;BME280;59638;52.126;5.434;2023-09-30T09:56:44;102790.13;;;22.95;69.89
71791;BME280;59638;52.126;5.434;2023-09-30T09:59:12;102791.31;;;22.51;72.14
71791;BME280;59638;52.126;5.434;2023-09-30T10:01:42;102792.19;;;22.36;72.79
71791;BME280;59638;52.126;5.434;2023-09-30T10:04:12;102790.84;;;22.15;73.46
71791;BME280;59638;52.126;5.434;2023-09-30T10:06:43;102795.03;;;23.78;69.85
71791;BME280;59638;52.126;5.434;2023-09-30T10:09:12;102795.75;;;26.24;61.52
71791;BME280;59638;52.126;5.434;2023-09-30T10:11:40;102793.31;;;26.51;56.49
71791;BME280;59638;52.126;5.434;2023-09-30T10:14:08;102781.59;;;27.48;56.19
71791;BME280;59638;52.126;5.434;2023-09-30T10:19:28;102767.41;;;29.24;49.28
71791;BME280;59638;52.126;5.434;2023-09-30T10:25:00;102756.44;;;29.44;43.79
71791;BME280;59638;52.126;5.434;2023-09-30T10:27:29;102755.41;;;28.87;49.72
71791;BME280;59638;52.126;5.434;2023-09-30T10:35:17;102747.75;;;28.31;50.18
71791;BME280;59638;52.126;5.434;2023-09-30T10:37:44;102744.34;;;28.82;48.74
71791;BME280;59638;52.126;5.434;2023-09-30T10:40:31;102731.63;;;28.16;49.19
71791;BME280;59638;52.126;5.434;2023-09-30T10:42:58;102736.22;;;27.15;50.76
71791;BME280;59638;52.126;5.434;2023-09-30T10:51:16;102743.94;;;26.06;55.74
71791;BME280;59638;52.126;5.434;2023-09-30T10:53:52;102736.84;;;25.62;57.49
71791;BME280;59638;52.126;5.434;2023-09-30T10:56:19;102742.09;;;25.85;57.31
71791;BME280;59638;52.126;5.434;2023-09-30T10:58:48;102738.09;;;24.19;59.54
71791;BME280;59638;52.126;5.434;2023-09-30T11:01:17;102729.94;;;24.27;56.78
71791;BME280;59638;52.126;5.434;2023-09-30T11:03:45;102736.19;;;25.24;52.57
71791;BME280;59638;52.126;5.434;2023-09-30T11:06:13;102734.63;;;26.37;52.90
71791;BME280;59638;52.126;5.434;2023-09-30T11:08:50;102723.41;;;27.63;51.53
71791;BME280;59638;52.126;5.434;2023-09-30T11:11:17;102726.97;;;26.68;53.23
71791;BME280;59638;52.126;5.434;2023-09-30T11:13:43;102723.09;;;27.25;52.75
71791;BME280;59638;52.126;5.434;2023-09-30T11:16:10;102732.84;;;26.78;53.18
71791;BME280;59638;52.126;5.434;2023-09-30T11:18:37;102737.28;;;25.00;57.85
71791;BME280;59638;52.126;5.434;2023-09-30T11:21:10;102738.69;;;23.21;63.29
71791;BME280;59638;52.126;5.434;2023-09-30T11:23:40;102732.78;;;21.96;66.49
71791;BME280;59638;52.126;5.434;2023-09-30T11:26:07;102730.50;;;21.09;68.06
71791;BME280;59638;52.126;5.434;2023-09-30T11:28:37;102720.47;;;20.85;70.17
71791;BME280;59638;52.126;5.434;2023-09-30T11:31:11;102722.38;;;20.41;71.46
71791;BME280;59638;52.126;5.434;2023-09-30T11:33:49;102721.81;;;19.75;72.45
71791;BME280;59638;52.126;5.434;2023-09-30T11:36:21;102716.94;;;19.34;74.33
71791;BME280;59638;52.126;5.434;2023-09-30T11:38:51;102709.22;;;19.03;74.51
71791;BME280;59638;52.126;5.434;2023-09-30T11:41:19;102707.47;;;19.21;77.51
71791;BME280;59638;52.126;5.434;2023-09-30T11:44:00;102710.78;;;22.17;69.03
71791;BME280;59638;52.126;5.434;2023-09-30T11:46:27;102693.63;;;23.06;63.80
71791;BME280;59638;52.126;5.434;2023-09-30T11:48:59;102701.44;;;24.91;56.94
71791;BME280;59638;52.126;5.434;2023-09-30T11:51:29;102713.53;;;23.68;58.92
71791;BME280;59638;52.126;5.434;2023-09-30T11:53:57;102721.03;;;22.55;64.03
71791;BME280;59638;52.126;5.434;2023-09-30T11:56:24;102722.38;;;22.02;63.50
71791;BME280;59638;52.126;5.434;2023-09-30T11:58:56;102724.00;;;21.62;68.04
71791;BME280;59638;52.126;5.434;2023-09-30T12:01:23;102716.66;;;21.96;64.69
71791;BME280;59638;52.126;5.434;2023-09-30T12:03:51;102715.22;;;21.43;65.18
71791;BME280;59638;52.126;5.434;2023-09-30T12:06:23;102711.59;;;21.77;68.76
71791;BME280;59638;52.126;5.434;2023-09-30T12:08:51;102708.25;;;22.08;63.22
71791;BME280;59638;52.126;5.434;2023-09-30T12:11:18;102696.66;;;21.24;62.94
71791;BME280;59638;52.126;5.434;2023-09-30T12:13:45;102705.78;;;20.97;66.86
71791;BME280;59638;52.126;5.434;2023-09-30T12:16:15;102695.34;;;20.60;64.96
71791;BME280;59638;52.126;5.434;2023-09-30T12:18:42;102693.75;;;20.23;66.75
71791;BME280;59638;52.126;5.434;2023-09-30T12:21:12;102703.34;;;20.08;70.09
71791;BME280;59638;52.126;5.434;2023-09-30T12:23:40;102688.44;;;19.88;69.58
71791;BME280;59638;52.126;5.434;2023-09-30T12:26:06;102685.19;;;20.02;70.90
71791;BME280;59638;52.126;5.434;2023-09-30T12:28:40;102679.16;;;21.54;64.26
71791;BME280;59638;52.126;5.434;2023-09-30T12:31:07;102672.97;;;22.03;62.36
71791;BME280;59638;52.126;5.434;2023-09-30T12:33:33;102669.22;;;21.47;64.70
71791;BME280;59638;52.126;5.434;2023-09-30T12:36:00;102669.44;;;21.19;67.38
71791;BME280;59638;52.126;5.434;2023-09-30T12:38:27;102673.94;;;21.02;62.12
71791;BME280;59638;52.126;5.434;2023-09-30T12:40:55;102667.53;;;20.61;66.98
71791;BME280;59638;52.126;5.434;2023-09-30T12:43:21;102674.47;;;20.46;64.92
71791;BME280;59638;52.126;5.434;2023-09-30T12:45:48;102684.13;;;20.38;67.22
71791;BME280;59638;52.126;5.434;2023-09-30T12:48:15;102681.50;;;20.47;65.99
71791;BME280;59638;52.126;5.434;2023-09-30T12:50:41;102667.84;;;20.40;67.91
71791;BME280;59638;52.126;5.434;2023-09-30T12:53:08;102670.47;;;20.50;66.10
71791;BME280;59638;52.126;5.434;2023-09-30T12:55:34;102674.09;;;20.41;67.48
71791;BME280;59638;52.126;5.434;2023-09-30T12:58:00;102680.13;;;20.43;65.54
71791;BME280;59638;52.126;5.434;2023-09-30T13:00:27;102677.31;;;20.26;68.07
71791;BME280;59638;52.126;5.434;2023-09-30T13:02:57;102679.78;;;20.20;69.04
71791;BME280;59638;52.126;5.434;2023-09-30T13:05:24;102675.75;;;20.16;69.42
71791;BME280;59638;52.126;5.434;2023-09-30T13:07:52;102673.06;;;20.16;70.15